sensor_id;sensor_type;location;lat;lon;timestamp;P1;durP1;ratioP1;P2;durP2;ratioP2
40717;SDS011;26405;51.850;-2.246;2023-12-22T00:00:25;13.70;;;3.83;;
40717;SDS011;26405;51.850;-2.246;2023-12-22T00:02:51;11.85;;;3.90;;
40717;SDS011;26405;51.850;-2.246;2023-12-22T00:05:16;13.25;;;3.55;;
40717;SDS011;26405;51.850;-2.246;2023-12-22T00:07:42;13.32;;;3.90;;
40717;SDS011;26405;51.850;-2.246;2023-12-22T00:10:07;12.18;;;3.70;;
40717;SDS011;26405;51.850;-2.246;2023-12-22T00:12:34;13.30;;;3.60;;
40717;SDS011;26405;51.850;-2.246;2023-12-22T00:14:59;10.85;;;3.40;;
40717;SDS011;26405;51.850;-2.246;2023-12-22T00:17:24;8.82;;;2.63;;
40717;SDS011;26405;51.850;-2.246;2023-12-22T00:19:49;8.63;;;2.90;;
40717;SDS011;26405;51.850;-2.246;2023-12-22T00:22:15;8.20;;;2.90;;
40717;SDS011;26405;51.850;-2.246;2023-12-22T00:24:40;6.45;;;2.60;;
40717;SDS011;26405;51.850;-2.246;2023-12-22T00:27:05;8.82;;;2.60;;
40717;SDS011;26405;51.850;-2.246;2023-12-22T00:29:31;7.55;;;2.47;;
40717;SDS011;26405;51.850;-2.246;2023-12-22T00:31:57;4.63;;;2.05;;
40717;SDS011;26405;51.850;-2.246;2023-12-22T00:34:22;4.97;;;1.90;;
40717;SDS011;26405;51.850;-2.246;2023-12-22T00:36:48;7.30;;;2.35;;
40717;SDS011;26405;51.850;-2.246;2023-12-22T00:39:13;5.55;;;2.03;;
40717;SDS011;26405;51.850;-2.246;2023-12-22T00:41:47;5.40;;;2.13;;
40717;SDS011;26405;51.850;-2.246;2023-12-22T00:44:12;3.47;;;1.77;;
40717;SDS011;26405;51.850;-2.246;2023-12-22T00:46:38;5.18;;;1.90;;
40717;SDS011;26405;51.850;-2.246;2023-12-22T00:49:03;6.63;;;2.20;;
40717;SDS011;26405;51.850;-2.246;2023-12-22T00:51:28;6.40;;;2.35;;
40717;SDS011;26405;51.850;-2.246;2023-12-22T00:53:53;5.75;;;1.90;;
40717;SDS011;26405;51.850;-2.246;2023-12-22T00:56:18;3.28;;;1.70;;
40717;SDS011;26405;51.850;-2.246;2023-12-22T00:58:44;5.40;;;1.73;;
40717;SDS011;26405;51.850;-2.246;2023-12-22T01:01:09;3.53;;;1.57;;
40717;SDS011;26405;51.850;-2.246;2023-12-22T01:03:35;3.65;;;1.50;;
40717;SDS011;26405;51.850;-2.246;2023-12-22T01:06:00;2.88;;;1.77;;
40717;SDS011;26405;51.850;-2.246;2023-12-22T01:08:25;2.85;;;1.70;;
40717;SDS011;26405;51.850;-2.246;2023-12-22T01:10:50;2.78;;;1.63;;
40717;SDS011;26405;51.850;-2.246;2023-12-22T01:13:15;5.80;;;1.90;;
40717;SDS011;26405;51.850;-2.246;2023-12-22T01:15:41;2.90;;;1.70;;
40717;SDS011;26405;51.850;-2.246;2023-12-22T01:18:08;3.33;;;1.30;;
40717;SDS011;26405;51.850;-2.246;2023-12-22T01:20:33;3.60;;;1.67;;
40717;SDS011;26405;51.850;-2.246;2023-12-22T01:22:59;4.55;;;1.60;;
40717;SDS011;26405;51.850;-2.246;2023-12-22T01:25:24;3.60;;;1.40;;
40717;SDS011;26405;51.850;-2.246;2023-12-22T01:27:49;3.95;;;1.60;;
40717;SDS011;26405;51.850;-2.246;2023-12-22T01:30:17;2.65;;;1.58;;
40717;SDS011;26405;51.850;-2.246;2023-12-22T01:32:42;1.63;;;1.33;;
40717;SDS011;26405;51.850;-2.246;2023-12-22T01:35:07;2.07;;;1.50;;
40717;SDS011;26405;51.850;-2.246;2023-12-22T01:37:37;3.25;;;1.42;;
40717;SDS011;26405;51.850;-2.246;2023-12-22T01:40:03;1.30;;;1.20;;
40717;SDS011;26405;51.850;-2.246;2023-12-22T01:42:28;2.15;;;1.40;;
40717;SDS011;26405;51.850;-2.246;2023-12-22T01:44:54;1.15;;;1.05;;
40717;SDS011;26405;51.850;-2.246;2023-12-22T01:47:19;2.97;;;1.33;;
40717;SDS011;26405;51.850;-2.246;2023-12-22T01:49:52;1.88;;;1.15;;
40717;SDS011;26405;51.850;-2.246;2023-12-22T01:52:18;1.48;;;1.10;;
40717;SDS011;26405;51.850;-2.246;2023-12-22T01:54:43;3.60;;;1.38;;
40717;SDS011;26405;51.850;-2.246;2023-12-22T01:57:09;2.28;;;1.20;;
40717;SDS011;26405;51.850;-2.246;2023-12-22T01:59:35;1.35;;;1.10;;
40717;SDS011;26405;51.850;-2.246;2023-12-22T02:02:01;0.88;;;0.85;;
40717;SDS011;26405;51.850;-2.246;2023-12-22T02:04:27;1.35;;;1.05;;
40717;SDS011;26405;51.850;-2.246;2023-12-22T02:06:52;0.90;;;0.90;;
40717;SDS011;26405;51.850;-2.246;2023-12-22T02:09:18;1.15;;;1.05;;
40717;SDS011;26405;51.850;-2.246;2023-12-22T02:11:43;1.48;;;1.23;;
40717;SDS011;26405;51.850;-2.246;2023-12-22T02:14:08;1.23;;;1.13;;
40717;SDS011;26405;51.850;-2.246;2023-12-22T02:16:39;0.70;;;0.70;;
40717;SDS011;26405;51.850;-2.246;2023-12-22T02:19:14;1.65;;;1.10;;
40717;SDS011;26405;51.850;-2.246;2023-12-22T02:22:03;1.33;;;1.27;;
40717;SDS011;26405;51.850;-2.246;2023-12-22T02:24:29;1.42;;;1.33;;
40717;SDS011;26405;51.850;-2.246;2023-12-22T02:26:56;1.33;;;1.08;;
40717;SDS011;26405;51.850;-2.246;2023-12-22T02:29:22;3.45;;;1.15;;
40717;SDS011;26405;51.850;-2.246;2023-12-22T02:34:17;1.10;;;1.05;;
40717;SDS011;26405;51.850;-2.246;2023-12-22T02:36:44;1.33;;;1.23;;
40717;SDS011;26405;51.850;-2.246;2023-12-22T02:39:09;2.10;;;1.30;;
40717;SDS011;26405;51.850;-2.246;2023-12-22T02:41:35;1.47;;;1.13;;
40717;SDS011;26405;51.850;-2.246;2023-12-22T02:44:01;2.17;;;1.02;;
40717;SDS011;26405;51.850;-2.246;2023-12-22T02:46:26;1.00;;;0.90;;
40717;SDS011;26405;51.850;-2.246;2023-12-22T02:48:51;1.15;;;1.05;;
40717;SDS011;26405;51.850;-2.246;2023-12-22T02:51:17;2.10;;;1.25;;
40717;SDS011;26405;51.850;-2.246;2023-12-22T02:53:42;1.17;;;1.10;;
40717;SDS011;26405;51.850;-2.246;2023-12-22T02:56:07;1.13;;;1.02;;
40717;SDS011;26405;51.850;-2.246;2023-12-22T02:58:33;1.10;;;0.98;;
40717;SDS011;26405;51.850;-2.246;2023-12-22T03:00:58;1.10;;;1.10;;
40717;SDS011;26405;51.850;-2.246;2023-12-22T03:03:23;1.30;;;1.20;;
40717;SDS011;26405;51.850;-2.246;2023-12-22T03:05:48;1.10;;;1.00;;
40717;SDS011;26405;51.850;-2.246;2023-12-22T03:08:14;1.90;;;0.93;;
40717;SDS011;26405;51.850;-2.246;2023-12-22T03:10:39;0.80;;;0.80;;
40717;SDS011;26405;51.850;-2.246;2023-12-22T03:13:04;0.98;;;0.98;;
40717;SDS011;26405;51.850;-2.246;2023-12-22T03:15:29;1.17;;;0.98;;
40717;SDS011;26405;51.850;-2.246;2023-12-22T03:17:54;1.60;;;1.20;;
40717;SDS011;26405;51.850;-2.246;2023-12-22T03:20:20;0.82;;;0.82;;
40717;SDS011;26405;51.850;-2.246;2023-12-22T03:22:45;2.22;;;1.15;;
40717;SDS011;26405;51.850;-2.246;2023-12-22T03:25:10;1.85;;;1.13;;
40717;SDS011;26405;51.850;-2.246;2023-12-22T03:27:35;1.25;;;1.10;;
40717;SDS011;26405;51.850;-2.246;2023-12-22T03:30:01;2.30;;;1.47;;
40717;SDS011;26405;51.850;-2.246;2023-12-22T03:32:27;2.67;;;1.50;;
40717;SDS011;26405;51.850;-2.246;2023-12-22T03:34:52;2.17;;;1.13;;
40717;SDS011;26405;51.850;-2.246;2023-12-22T03:37:17;1.47;;;1.37;;
40717;SDS011;26405;51.850;-2.246;2023-12-22T03:39:42;1.55;;;1.00;;
40717;SDS011;26405;51.850;-2.246;2023-12-22T03:42:07;1.30;;;1.20;;
40717;SDS011;26405;51.850;-2.246;2023-12-22T03:44:33;2.58;;;1.13;;
40717;SDS011;26405;51.850;-2.246;2023-12-22T03:46:58;1.10;;;1.00;;
40717;SDS011;26405;51.850;-2.246;2023-12-22T03:49:23;1.15;;;1.13;;
40717;SDS011;26405;51.850;-2.246;2023-12-22T03:51:48;0.90;;;0.90;;
40717;SDS011;26405;51.850;-2.246;2023-12-22T03:54:14;0.82;;;0.82;;
40717;SDS011;26405;51.850;-2.246;2023-12-22T03:56:42;1.23;;;1.13;;
40717;SDS011;26405;51.850;-2.246;2023-12-22T03:59:07;1.20;;;1.10;;
40717;SDS011;26405;51.850;-2.246;2023-12-22T04:01:32;1.20;;;1.10;;
40717;SDS011;26405;51.850;-2.246;2023-12-22T04:03:57;1.50;;;1.15;;
40717;SDS011;26405;51.850;-2.246;2023-12-22T04:06:23;1.20;;;1.10;;
40717;SDS011;26405;51.850;-2.246;2023-12-22T04:08:48;2.35;;;1.27;;
40717;SDS011;26405;51.850;-2.246;2023-12-22T04:11:13;1.90;;;1.20;;
40717;SDS011;26405;51.850;-2.246;2023-12-22T04:13:38;2.10;;;1.33;;
40717;SDS011;26405;51.850;-2.246;2023-12-22T04:16:04;2.75;;;1.27;;
40717;SDS011;26405;51.850;-2.246;2023-12-22T04:18:30;1.10;;;1.10;;
40717;SDS011;26405;51.850;-2.246;2023-12-22T04:20:55;1.63;;;1.30;;
40717;SDS011;26405;51.850;-2.246;2023-12-22T04:23:20;2.00;;;1.23;;
40717;SDS011;26405;51.850;-2.246;2023-12-22T04:25:45;3.20;;;1.60;;
40717;SDS011;26405;51.850;-2.246;2023-12-22T04:28:11;1.77;;;1.63;;
40717;SDS011;26405;51.850;-2.246;2023-12-22T04:30:36;1.57;;;1.40;;
40717;SDS011;26405;51.850;-2.246;2023-12-22T04:33:01;2.30;;;1.30;;
40717;SDS011;26405;51.850;-2.246;2023-12-22T04:35:27;1.55;;;1.08;;
40717;SDS011;26405;51.850;-2.246;2023-12-22T04:37:52;2.50;;;1.07;;
40717;SDS011;26405;51.850;-2.246;2023-12-22T04:40:17;1.95;;;1.38;;
40717;SDS011;26405;51.850;-2.246;2023-12-22T04:42:43;0.85;;;0.85;;
40717;SDS011;26405;51.850;-2.246;2023-12-22T04:45:08;1.65;;;1.38;;
40717;SDS011;26405;51.850;-2.246;2023-12-22T04:47:33;1.98;;;1.30;;
40717;SDS011;26405;51.850;-2.246;2023-12-22T04:49:58;1.83;;;1.05;;
40717;SDS011;26405;51.850;-2.246;2023-12-22T04:52:24;3.05;;;1.38;;
40717;SDS011;26405;51.850;-2.246;2023-12-22T04:54:49;1.45;;;1.13;;
40717;SDS011;26405;51.850;-2.246;2023-12-22T04:57:14;3.15;;;0.95;;
40717;SDS011;26405;51.850;-2.246;2023-12-22T04:59:39;1.98;;;1.25;;
40717;SDS011;26405;51.850;-2.246;2023-12-22T05:02:05;2.80;;;1.33;;
40717;SDS011;26405;51.850;-2.246;2023-12-22T05:04:31;3.13;;;1.20;;
40717;SDS011;26405;51.850;-2.246;2023-12-22T05:06:56;2.78;;;1.40;;
40717;SDS011;26405;51.850;-2.246;2023-12-22T05:09:22;2.33;;;1.42;;
40717;SDS011;26405;51.850;-2.246;2023-12-22T05:11:50;3.25;;;1.40;;
40717;SDS011;26405;51.850;-2.246;2023-12-22T05:14:15;6.10;;;1.40;;
40717;SDS011;26405;51.850;-2.246;2023-12-22T05:16:40;1.23;;;1.08;;
40717;SDS011;26405;51.850;-2.246;2023-12-22T05:19:05;2.75;;;1.38;;
40717;SDS011;26405;51.850;-2.246;2023-12-22T05:21:31;1.10;;;0.93;;
40717;SDS011;26405;51.850;-2.246;2023-12-22T05:23:56;2.40;;;1.40;;
40717;SDS011;26405;51.850;-2.246;2023-12-22T05:26:21;3.30;;;1.33;;
40717;SDS011;26405;51.850;-2.246;2023-12-22T05:28:47;2.67;;;1.10;;
40717;SDS011;26405;51.850;-2.246;2023-12-22T05:31:14;2.58;;;1.20;;
40717;SDS011;26405;51.850;-2.246;2023-12-22T05:33:39;4.13;;;1.67;;
40717;SDS011;26405;51.850;-2.246;2023-12-22T05:36:05;3.47;;;1.50;;
40717;SDS011;26405;51.850;-2.246;2023-12-22T05:38:30;4.18;;;1.63;;
40717;SDS011;26405;51.850;-2.246;2023-12-22T05:40:56;6.63;;;1.80;;
40717;SDS011;26405;51.850;-2.246;2023-12-22T05:43:21;5.35;;;1.40;;
40717;SDS011;26405;51.850;-2.246;2023-12-22T05:45:46;4.93;;;1.75;;
40717;SDS011;26405;51.850;-2.246;2023-12-22T05:48:11;6.28;;;1.70;;
40717;SDS011;26405;51.850;-2.246;2023-12-22T05:50:37;4.47;;;1.80;;
40717;SDS011;26405;51.850;-2.246;2023-12-22T05:53:02;5.85;;;1.60;;
40717;SDS011;26405;51.850;-2.246;2023-12-22T05:55:27;4.97;;;1.58;;
40717;SDS011;26405;51.850;-2.246;2023-12-22T05:57:52;3.57;;;1.87;;
40717;SDS011;26405;51.850;-2.246;2023-12-22T06:00:18;5.90;;;1.90;;
40717;SDS011;26405;51.850;-2.246;2023-12-22T06:02:44;4.05;;;2.00;;
40717;SDS011;26405;51.850;-2.246;2023-12-22T06:05:09;3.80;;;1.58;;
40717;SDS011;26405;51.850;-2.246;2023-12-22T06:07:34;4.03;;;1.73;;
40717;SDS011;26405;51.850;-2.246;2023-12-22T06:09:59;3.80;;;1.80;;
40717;SDS011;26405;51.850;-2.246;2023-12-22T06:12:25;4.35;;;1.75;;
40717;SDS011;26405;51.850;-2.246;2023-12-22T06:14:50;4.82;;;1.73;;
40717;SDS011;26405;51.850;-2.246;2023-12-22T06:17:16;3.80;;;1.88;;
40717;SDS011;26405;51.850;-2.246;2023-12-22T06:19:41;4.50;;;1.58;;
40717;SDS011;26405;51.850;-2.246;2023-12-22T06:22:06;5.18;;;1.80;;
40717;SDS011;26405;51.850;-2.246;2023-12-22T06:24:31;4.95;;;1.90;;
40717;SDS011;26405;51.850;-2.246;2023-12-22T06:26:59;3.92;;;1.63;;
40717;SDS011;26405;51.850;-2.246;2023-12-22T06:29:24;2.88;;;1.50;;
40717;SDS011;26405;51.850;-2.246;2023-12-22T06:31:50;3.97;;;1.55;;
40717;SDS011;26405;51.850;-2.246;2023-12-22T06:34:15;4.47;;;1.58;;
40717;SDS011;26405;51.850;-2.246;2023-12-22T06:36:41;7.88;;;1.90;;
40717;SDS011;26405;51.850;-2.246;2023-12-22T06:39:06;6.97;;;2.00;;
40717;SDS011;26405;51.850;-2.246;2023-12-22T06:41:31;4.72;;;2.00;;
40717;SDS011;26405;51.850;-2.246;2023-12-22T06:43:57;5.53;;;1.98;;
40717;SDS011;26405;51.850;-2.246;2023-12-22T06:46:26;5.20;;;1.60;;
40717;SDS011;26405;51.850;-2.246;2023-12-22T06:48:51;2.95;;;1.70;;
40717;SDS011;26405;51.850;-2.246;2023-12-22T06:51:23;5.47;;;1.83;;
40717;SDS011;26405;51.850;-2.246;2023-12-22T06:53:49;8.68;;;1.60;;
40717;SDS011;26405;51.850;-2.246;2023-12-22T06:56:21;5.63;;;1.83;;
40717;SDS011;26405;51.850;-2.246;2023-12-22T06:58:48;7.45;;;2.17;;
40717;SDS011;26405;51.850;-2.246;2023-12-22T07:03:49;3.92;;;1.95;;
40717;SDS011;26405;51.850;-2.246;2023-12-22T07:06:15;2.22;;;1.50;;
40717;SDS011;26405;51.850;-2.246;2023-12-22T07:08:40;4.32;;;1.35;;
40717;SDS011;26405;51.850;-2.246;2023-12-22T07:11:06;4.97;;;1.58;;
40717;SDS011;26405;51.850;-2.246;2023-12-22T07:13:32;6.30;;;1.98;;
40717;SDS011;26405;51.850;-2.246;2023-12-22T07:15:57;3.65;;;1.63;;
40717;SDS011;26405;51.850;-2.246;2023-12-22T07:18:22;4.43;;;1.60;;
40717;SDS011;26405;51.850;-2.246;2023-12-22T07:20:48;7.10;;;1.75;;
40717;SDS011;26405;51.850;-2.246;2023-12-22T07:23:14;4.43;;;1.70;;
40717;SDS011;26405;51.850;-2.246;2023-12-22T07:25:39;6.45;;;2.00;;
40717;SDS011;26405;51.850;-2.246;2023-12-22T07:28:05;3.75;;;1.58;;
40717;SDS011;26405;51.850;-2.246;2023-12-22T07:30:30;8.50;;;1.92;;
40717;SDS011;26405;51.850;-2.246;2023-12-22T07:32:55;5.68;;;1.98;;
40717;SDS011;26405;51.850;-2.246;2023-12-22T07:35:20;6.18;;;2.05;;
40717;SDS011;26405;51.850;-2.246;2023-12-22T07:37:46;6.88;;;1.90;;
40717;SDS011;26405;51.850;-2.246;2023-12-22T07:40:11;6.28;;;2.00;;
40717;SDS011;26405;51.850;-2.246;2023-12-22T07:42:36;7.72;;;1.90;;
40717;SDS011;26405;51.850;-2.246;2023-12-22T07:45:03;5.10;;;2.03;;
40717;SDS011;26405;51.850;-2.246;2023-12-22T07:47:29;5.72;;;2.03;;
40717;SDS011;26405;51.850;-2.246;2023-12-22T07:49:54;6.22;;;2.50;;
40717;SDS011;26405;51.850;-2.246;2023-12-22T07:52:19;7.70;;;2.35;;
40717;SDS011;26405;51.850;-2.246;2023-12-22T07:54:45;7.22;;;2.17;;
40717;SDS011;26405;51.850;-2.246;2023-12-22T07:59:37;9.10;;;2.28;;
40717;SDS011;26405;51.850;-2.246;2023-12-22T08:02:02;7.57;;;2.22;;
40717;SDS011;26405;51.850;-2.246;2023-12-22T08:04:27;7.85;;;2.40;;
40717;SDS011;26405;51.850;-2.246;2023-12-22T08:06:53;9.02;;;2.47;;
40717;SDS011;26405;51.850;-2.246;2023-12-22T08:09:18;5.13;;;2.20;;
40717;SDS011;26405;51.850;-2.246;2023-12-22T08:11:43;9.27;;;2.30;;
40717;SDS011;26405;51.850;-2.246;2023-12-22T08:14:11;6.00;;;1.95;;
40717;SDS011;26405;51.850;-2.246;2023-12-22T08:16:36;8.35;;;2.35;;
40717;SDS011;26405;51.850;-2.246;2023-12-22T08:19:02;8.27;;;2.50;;
40717;SDS011;26405;51.850;-2.246;2023-12-22T08:21:27;5.57;;;1.80;;
40717;SDS011;26405;51.850;-2.246;2023-12-22T08:23:52;7.28;;;2.28;;
40717;SDS011;26405;51.850;-2.246;2023-12-22T08:26:17;6.57;;;2.20;;
40717;SDS011;26405;51.850;-2.246;2023-12-22T08:28:44;4.72;;;1.88;;
40717;SDS011;26405;51.850;-2.246;2023-12-22T08:31:09;6.93;;;2.10;;
40717;SDS011;26405;51.850;-2.246;2023-12-22T08:33:35;6.13;;;2.20;;
40717;SDS011;26405;51.850;-2.246;2023-12-22T08:36:00;6.97;;;2.28;;
40717;SDS011;26405;51.850;-2.246;2023-12-22T08:38:25;7.95;;;2.15;;
40717;SDS011;26405;51.850;-2.246;2023-12-22T08:40:51;6.80;;;2.03;;
40717;SDS011;26405;51.850;-2.246;2023-12-22T08:43:16;5.18;;;2.15;;
40717;SDS011;26405;51.850;-2.246;2023-12-22T08:45:42;9.23;;;2.60;;
40717;SDS011;26405;51.850;-2.246;2023-12-22T08:48:07;6.28;;;2.20;;
40717;SDS011;26405;51.850;-2.246;2023-12-22T08:50:33;8.70;;;2.40;;
40717;SDS011;26405;51.850;-2.246;2023-12-22T08:52:58;9.85;;;2.20;;
40717;SDS011;26405;51.850;-2.246;2023-12-22T08:55:23;6.80;;;2.17;;
40717;SDS011;26405;51.850;-2.246;2023-12-22T08:57:48;7.03;;;2.17;;
40717;SDS011;26405;51.850;-2.246;2023-12-22T09:00:14;7.85;;;2.58;;
40717;SDS011;26405;51.850;-2.246;2023-12-22T09:02:40;7.13;;;2.45;;
40717;SDS011;26405;51.850;-2.246;2023-12-22T09:05:05;8.10;;;2.60;;
40717;SDS011;26405;51.850;-2.246;2023-12-22T09:09:57;6.53;;;2.10;;
40717;SDS011;26405;51.850;-2.246;2023-12-22T09:12:22;9.00;;;2.50;;
40717;SDS011;26405;51.850;-2.246;2023-12-22T09:14:48;8.25;;;2.42;;
40717;SDS011;26405;51.850;-2.246;2023-12-22T09:17:13;8.90;;;2.30;;
40717;SDS011;26405;51.850;-2.246;2023-12-22T09:19:38;8.60;;;2.60;;
40717;SDS011;26405;51.850;-2.246;2023-12-22T09:22:04;6.75;;;2.38;;
40717;SDS011;26405;51.850;-2.246;2023-12-22T09:24:29;8.43;;;2.17;;
40717;SDS011;26405;51.850;-2.246;2023-12-22T09:26:54;9.43;;;2.60;;
40717;SDS011;26405;51.850;-2.246;2023-12-22T09:29:20;6.80;;;2.00;;
40717;SDS011;26405;51.850;-2.246;2023-12-22T09:31:46;7.28;;;2.05;;
40717;SDS011;26405;51.850;-2.246;2023-12-22T09:34:12;5.40;;;2.13;;
40717;SDS011;26405;51.850;-2.246;2023-12-22T09:36:37;7.85;;;2.53;;
40717;SDS011;26405;51.850;-2.246;2023-12-22T09:39:02;9.65;;;2.50;;
40717;SDS011;26405;51.850;-2.246;2023-12-22T09:41:28;5.75;;;2.20;;
40717;SDS011;26405;51.850;-2.246;2023-12-22T09:43:53;8.82;;;2.40;;
40717;SDS011;26405;51.850;-2.246;2023-12-22T09:46:20;8.32;;;2.42;;
40717;SDS011;26405;51.850;-2.246;2023-12-22T09:48:46;9.48;;;2.50;;
40717;SDS011;26405;51.850;-2.246;2023-12-22T09:51:12;8.30;;;2.05;;
40717;SDS011;26405;51.850;-2.246;2023-12-22T09:53:39;8.20;;;2.30;;
40717;SDS011;26405;51.850;-2.246;2023-12-22T09:56:05;8.30;;;2.47;;
40717;SDS011;26405;51.850;-2.246;2023-12-22T09:58:31;7.18;;;2.20;;
40717;SDS011;26405;51.850;-2.246;2023-12-22T10:00:57;7.28;;;2.33;;
40717;SDS011;26405;51.850;-2.246;2023-12-22T10:03:23;10.73;;;2.38;;
40717;SDS011;26405;51.850;-2.246;2023-12-22T10:05:49;8.32;;;2.65;;
40717;SDS011;26405;51.850;-2.246;2023-12-22T10:08:14;8.10;;;2.60;;
40717;SDS011;26405;51.850;-2.246;2023-12-22T10:10:40;8.52;;;2.35;;
40717;SDS011;26405;51.850;-2.246;2023-12-22T10:13:06;9.82;;;2.40;;
40717;SDS011;26405;51.850;-2.246;2023-12-22T10:15:35;10.88;;;2.80;;
40717;SDS011;26405;51.850;-2.246;2023-12-22T10:18:01;11.30;;;2.53;;
40717;SDS011;26405;51.850;-2.246;2023-12-22T10:20:26;11.15;;;2.90;;
40717;SDS011;26405;51.850;-2.246;2023-12-22T10:22:51;10.52;;;2.50;;
40717;SDS011;26405;51.850;-2.246;2023-12-22T10:25:20;8.85;;;2.55;;
40717;SDS011;26405;51.850;-2.246;2023-12-22T10:27:45;12.73;;;2.88;;
40717;SDS011;26405;51.850;-2.246;2023-12-22T10:30:10;9.93;;;2.45;;
40717;SDS011;26405;51.850;-2.246;2023-12-22T10:32:39;13.00;;;3.00;;
40717;SDS011;26405;51.850;-2.246;2023-12-22T10:35:05;13.20;;;2.72;;
40717;SDS011;26405;51.850;-2.246;2023-12-22T10:37:32;10.35;;;2.80;;
40717;SDS011;26405;51.850;-2.246;2023-12-22T10:39:57;11.70;;;2.90;;
40717;SDS011;26405;51.850;-2.246;2023-12-22T10:42:23;8.90;;;2.85;;
40717;SDS011;26405;51.850;-2.246;2023-12-22T10:44:48;12.20;;;3.08;;
40717;SDS011;26405;51.850;-2.246;2023-12-22T10:47:14;10.30;;;2.88;;
40717;SDS011;26405;51.850;-2.246;2023-12-22T10:49:39;8.30;;;2.53;;
40717;SDS011;26405;51.850;-2.246;2023-12-22T10:52:05;11.85;;;3.00;;
40717;SDS011;26405;51.850;-2.246;2023-12-22T10:54:30;12.02;;;3.00;;
40717;SDS011;26405;51.850;-2.246;2023-12-22T10:56:59;12.40;;;3.10;;
40717;SDS011;26405;51.850;-2.246;2023-12-22T10:59:25;10.40;;;2.80;;
40717;SDS011;26405;51.850;-2.246;2023-12-22T11:04:20;9.25;;;2.58;;
40717;SDS011;26405;51.850;-2.246;2023-12-22T11:06:45;11.77;;;2.60;;
40717;SDS011;26405;51.850;-2.246;2023-12-22T11:09:11;10.63;;;2.72;;
40717;SDS011;26405;51.850;-2.246;2023-12-22T11:11:38;10.15;;;2.70;;
40717;SDS011;26405;51.850;-2.246;2023-12-22T11:14:05;8.50;;;2.67;;
40717;SDS011;26405;51.850;-2.246;2023-12-22T11:16:31;8.77;;;2.20;;
40717;SDS011;26405;51.850;-2.246;2023-12-22T11:21:23;8.23;;;2.47;;
40717;SDS011;26405;51.850;-2.246;2023-12-22T11:23:55;11.57;;;2.72;;
40717;SDS011;26405;51.850;-2.246;2023-12-22T11:28:47;9.07;;;2.53;;
40717;SDS011;26405;51.850;-2.246;2023-12-22T11:31:13;9.52;;;2.70;;
40717;SDS011;26405;51.850;-2.246;2023-12-22T11:33:48;9.48;;;2.80;;
40717;SDS011;26405;51.850;-2.246;2023-12-22T11:36:14;10.65;;;2.75;;
40717;SDS011;26405;51.850;-2.246;2023-12-22T11:38:40;10.20;;;2.45;;
40717;SDS011;26405;51.850;-2.246;2023-12-22T11:41:06;7.60;;;2.35;;
40717;SDS011;26405;51.850;-2.246;2023-12-22T11:43:33;9.65;;;2.67;;
40717;SDS011;26405;51.850;-2.246;2023-12-22T11:46:02;9.68;;;2.70;;
40717;SDS011;26405;51.850;-2.246;2023-12-22T11:48:28;10.52;;;2.88;;
40717;SDS011;26405;51.850;-2.246;2023-12-22T11:50:54;11.82;;;2.75;;
40717;SDS011;26405;51.850;-2.246;2023-12-22T11:53:23;11.00;;;2.83;;
40717;SDS011;26405;51.850;-2.246;2023-12-22T12:01:01;10.80;;;2.83;;
40717;SDS011;26405;51.850;-2.246;2023-12-22T12:03:29;10.43;;;3.15;;
40717;SDS011;26405;51.850;-2.246;2023-12-22T12:08:35;11.60;;;2.80;;
40717;SDS011;26405;51.850;-2.246;2023-12-22T12:11:00;9.80;;;2.78;;
40717;SDS011;26405;51.850;-2.246;2023-12-22T12:13:28;9.00;;;2.60;;
40717;SDS011;26405;51.850;-2.246;2023-12-22T12:15:56;18.23;;;2.75;;
40717;SDS011;26405;51.850;-2.246;2023-12-22T12:18:24;11.57;;;2.67;;
40717;SDS011;26405;51.850;-2.246;2023-12-22T12:20:52;11.20;;;2.90;;
40717;SDS011;26405;51.850;-2.246;2023-12-22T12:23:17;10.30;;;2.63;;
40717;SDS011;26405;51.850;-2.246;2023-12-22T12:25:42;11.13;;;2.85;;
40717;SDS011;26405;51.850;-2.246;2023-12-22T12:28:08;13.35;;;3.20;;
40717;SDS011;26405;51.850;-2.246;2023-12-22T12:30:43;9.93;;;2.65;;
40717;SDS011;26405;51.850;-2.246;2023-12-22T12:33:11;11.27;;;2.90;;
40717;SDS011;26405;51.850;-2.246;2023-12-22T12:35:40;11.47;;;2.80;;
40717;SDS011;26405;51.850;-2.246;2023-12-22T12:38:05;9.00;;;2.75;;
40717;SDS011;26405;51.850;-2.246;2023-12-22T12:40:31;13.82;;;3.00;;
40717;SDS011;26405;51.850;-2.246;2023-12-22T12:42:59;11.43;;;3.22;;
40717;SDS011;26405;51.850;-2.246;2023-12-22T12:45:24;11.98;;;2.78;;
40717;SDS011;26405;51.850;-2.246;2023-12-22T12:48:02;12.48;;;3.00;;
40717;SDS011;26405;51.850;-2.246;2023-12-22T12:50:28;11.38;;;2.70;;
40717;SDS011;26405;51.850;-2.246;2023-12-22T12:52:54;10.98;;;3.03;;
40717;SDS011;26405;51.850;-2.246;2023-12-22T12:55:20;13.10;;;2.47;;
40717;SDS011;26405;51.850;-2.246;2023-12-22T12:57:47;13.90;;;2.97;;
40717;SDS011;26405;51.850;-2.246;2023-12-22T13:00:13;12.68;;;2.97;;
40717;SDS011;26405;51.850;-2.246;2023-12-22T13:02:38;13.23;;;3.20;;
40717;SDS011;26405;51.850;-2.246;2023-12-22T13:05:04;11.52;;;3.03;;
40717;SDS011;26405;51.850;-2.246;2023-12-22T13:07:29;13.85;;;3.53;;
40717;SDS011;26405;51.850;-2.246;2023-12-22T13:09:55;14.63;;;3.10;;
40717;SDS011;26405;51.850;-2.246;2023-12-22T13:12:22;11.25;;;3.00;;
40717;SDS011;26405;51.850;-2.246;2023-12-22T13:14:48;8.38;;;3.00;;
40717;SDS011;26405;51.850;-2.246;2023-12-22T13:17:13;12.50;;;3.00;;
40717;SDS011;26405;51.850;-2.246;2023-12-22T13:19:39;12.18;;;3.15;;
40717;SDS011;26405;51.850;-2.246;2023-12-22T13:22:04;13.43;;;3.13;;
40717;SDS011;26405;51.850;-2.246;2023-12-22T13:24:29;10.80;;;2.78;;
40717;SDS011;26405;51.850;-2.246;2023-12-22T13:27:13;13.45;;;3.30;;
40717;SDS011;26405;51.850;-2.246;2023-12-22T13:29:44;13.20;;;3.25;;
40717;SDS011;26405;51.850;-2.246;2023-12-22T13:32:14;15.10;;;3.28;;
40717;SDS011;26405;51.850;-2.246;2023-12-22T13:34:40;13.95;;;2.85;;
40717;SDS011;26405;51.850;-2.246;2023-12-22T13:37:11;10.57;;;2.90;;
40717;SDS011;26405;51.850;-2.246;2023-12-22T13:39:36;13.20;;;2.70;;
40717;SDS011;26405;51.850;-2.246;2023-12-22T13:42:01;11.68;;;3.05;;
40717;SDS011;26405;51.850;-2.246;2023-12-22T13:44:27;12.75;;;2.85;;
40717;SDS011;26405;51.850;-2.246;2023-12-22T13:46:52;8.40;;;2.75;;
40717;SDS011;26405;51.850;-2.246;2023-12-22T13:49:17;9.60;;;2.80;;
40717;SDS011;26405;51.850;-2.246;2023-12-22T13:51:43;12.00;;;2.63;;
40717;SDS011;26405;51.850;-2.246;2023-12-22T13:54:09;11.18;;;2.55;;
40717;SDS011;26405;51.850;-2.246;2023-12-22T13:56:34;8.90;;;2.65;;
40717;SDS011;26405;51.850;-2.246;2023-12-22T13:59:01;10.18;;;2.70;;
40717;SDS011;26405;51.850;-2.246;2023-12-22T14:01:26;9.73;;;2.55;;
40717;SDS011;26405;51.850;-2.246;2023-12-22T14:03:52;8.93;;;2.53;;
40717;SDS011;26405;51.850;-2.246;2023-12-22T14:06:18;8.30;;;2.60;;
40717;SDS011;26405;51.850;-2.246;2023-12-22T14:08:43;10.43;;;2.25;;
40717;SDS011;26405;51.850;-2.246;2023-12-22T14:11:09;6.82;;;1.95;;
40717;SDS011;26405;51.850;-2.246;2023-12-22T14:13:34;7.72;;;2.33;;
40717;SDS011;26405;51.850;-2.246;2023-12-22T14:16:07;8.32;;;2.53;;
40717;SDS011;26405;51.850;-2.246;2023-12-22T14:18:33;9.95;;;2.70;;
40717;SDS011;26405;51.850;-2.246;2023-12-22T14:20:58;8.20;;;2.60;;
40717;SDS011;26405;51.850;-2.246;2023-12-22T14:23:26;10.77;;;2.55;;
40717;SDS011;26405;51.850;-2.246;2023-12-22T14:25:52;12.30;;;2.90;;
40717;SDS011;26405;51.850;-2.246;2023-12-22T14:28:17;7.15;;;2.30;;
40717;SDS011;26405;51.850;-2.246;2023-12-22T14:30:42;10.93;;;2.33;;
40717;SDS011;26405;51.850;-2.246;2023-12-22T14:33:08;10.27;;;2.60;;
40717;SDS011;26405;51.850;-2.246;2023-12-22T14:35:33;12.00;;;2.83;;
40717;SDS011;26405;51.850;-2.246;2023-12-22T14:37:58;10.05;;;2.50;;
40717;SDS011;26405;51.850;-2.246;2023-12-22T14:40:23;11.10;;;2.60;;
40717;SDS011;26405;51.850;-2.246;2023-12-22T14:42:50;8.65;;;2.72;;
40717;SDS011;26405;51.850;-2.246;2023-12-22T14:45:15;9.00;;;2.78;;
40717;SDS011;26405;51.850;-2.246;2023-12-22T14:47:40;9.57;;;2.40;;